sensor_id;sensor_type;location;lat;lon;timestamp;temperature;humidity
33715;DHT22;20043;50.998;4.754;2023-04-06T00:01:26;5.70;99.90
33715;DHT22;20043;50.998;4.754;2023-04-06T00:03:52;5.70;99.90
33715;DHT22;20043;50.998;4.754;2023-04-06T00:06:17;5.90;99.90
33715;DHT22;20043;50.998;4.754;2023-04-06T00:08:43;6.00;99.90
33715;DHT22;20043;50.998;4.754;2023-04-06T00:11:10;6.00;99.90
33715;DHT22;20043;50.998;4.754;2023-04-06T00:13:35;5.90;99.90
33715;DHT22;20043;50.998;4.754;2023-04-06T00:16:01;5.80;99.90
33715;DHT22;20043;50.998;4.754;2023-04-06T00:18:27;5.80;99.90
33715;DHT22;20043;50.998;4.754;2023-04-06T00:20:52;5.70;99.90
33715;DHT22;20043;50.998;4.754;2023-04-06T00:23:18;5.80;99.90
33715;DHT22;20043;50.998;4.754;2023-04-06T00:25:44;5.80;99.90
33715;DHT22;20043;50.998;4.754;2023-04-06T00:28:09;5.90;99.90
33715;DHT22;20043;50.998;4.754;2023-04-06T00:30:35;5.80;99.90
33715;DHT22;20043;50.998;4.754;2023-04-06T00:33:00;5.80;99.90
33715;DHT22;20043;50.998;4.754;2023-04-06T00:35:26;5.90;99.90
33715;DHT22;20043;50.998;4.754;2023-04-06T00:37:52;5.90;99.90
33715;DHT22;20043;50.998;4.754;2023-04-06T00:40:17;5.90;99.90
33715;DHT22;20043;50.998;4.754;2023-04-06T00:42:43;5.90;99.90
33715;DHT22;20043;50.998;4.754;2023-04-06T00:45:09;5.80;99.90
33715;DHT22;20043;50.998;4.754;2023-04-06T00:47:35;5.80;99.90
33715;DHT22;20043;50.998;4.754;2023-04-06T00:50:01;5.70;99.90
33715;DHT22;20043;50.998;4.754;2023-04-06T00:52:27;5.60;99.90
33715;DHT22;20043;50.998;4.754;2023-04-06T00:54:53;5.70;99.90
33715;DHT22;20043;50.998;4.754;2023-04-06T00:57:19;5.60;99.90
33715;DHT22;20043;50.998;4.754;2023-04-06T00:59:45;5.70;99.90
33715;DHT22;20043;50.998;4.754;2023-04-06T01:02:11;5.70;99.90
33715;DHT22;20043;50.998;4.754;2023-04-06T01:04:37;5.60;99.90
33715;DHT22;20043;50.998;4.754;2023-04-06T01:07:02;5.60;99.90
33715;DHT22;20043;50.998;4.754;2023-04-06T01:09:29;5.60;99.90
33715;DHT22;20043;50.998;4.754;2023-04-06T01:11:58;5.60;99.90
33715;DHT22;20043;50.998;4.754;2023-04-06T01:14:24;5.70;99.90
33715;DHT22;20043;50.998;4.754;2023-04-06T01:16:51;5.80;99.90
33715;DHT22;20043;50.998;4.754;2023-04-06T01:19:17;5.80;99.90
33715;DHT22;20043;50.998;4.754;2023-04-06T01:21:42;5.60;99.90
33715;DHT22;20043;50.998;4.754;2023-04-06T01:24:09;5.60;99.90
33715;DHT22;20043;50.998;4.754;2023-04-06T01:26:37;5.60;99.90
33715;DHT22;20043;50.998;4.754;2023-04-06T01:29:03;5.70;99.90
33715;DHT22;20043;50.998;4.754;2023-04-06T01:31:29;5.80;99.90
33715;DHT22;20043;50.998;4.754;2023-04-06T01:33:55;5.90;99.90
33715;DHT22;20043;50.998;4.754;2023-04-06T01:36:21;5.90;99.90
33715;DHT22;20043;50.998;4.754;2023-04-06T01:38:46;5.80;99.90
33715;DHT22;20043;50.998;4.754;2023-04-06T01:41:12;5.90;99.90
33715;DHT22;20043;50.998;4.754;2023-04-06T01:43:38;5.90;99.90
33715;DHT22;20043;50.998;4.754;2023-04-06T01:46:04;5.90;99.90
33715;DHT22;20043;50.998;4.754;2023-04-06T01:48:29;5.90;99.90
33715;DHT22;20043;50.998;4.754;2023-04-06T01:50:55;5.90;99.90
33715;DHT22;20043;50.998;4.754;2023-04-06T01:53:22;5.90;99.90
33715;DHT22;20043;50.998;4.754;2023-04-06T01:55:47;5.90;99.90
33715;DHT22;20043;50.998;4.754;2023-04-06T01:58:13;5.90;99.90
33715;DHT22;20043;50.998;4.754;2023-04-06T02:00:39;5.90;99.90
33715;DHT22;20043;50.998;4.754;2023-04-06T02:03:05;6.00;99.90
33715;DHT22;20043;50.998;4.754;2023-04-06T02:05:32;6.00;99.90
33715;DHT22;20043;50.998;4.754;2023-04-06T02:08:06;6.10;99.90
33715;DHT22;20043;50.998;4.754;2023-04-06T02:10:32;6.10;99.90
33715;DHT22;20043;50.998;4.754;2023-04-06T02:12:58;6.10;99.90
33715;DHT22;20043;50.998;4.754;2023-04-06T02:15:24;6.20;99.90
33715;DHT22;20043;50.998;4.754;2023-04-06T02:17:51;6.10;99.90
33715;DHT22;20043;50.998;4.754;2023-04-06T02:20:16;6.20;99.90
33715;DHT22;20043;50.998;4.754;2023-04-06T02:22:42;6.20;99.90
33715;DHT22;20043;50.998;4.754;2023-04-06T02:25:08;6.20;99.90
33715;DHT22;20043;50.998;4.754;2023-04-06T02:27:34;6.20;99.90
33715;DHT22;20043;50.998;4.754;2023-04-06T02:30:00;6.20;99.90
33715;DHT22;20043;50.998;4.754;2023-04-06T02:32:25;6.40;99.90
33715;DHT22;20043;50.998;4.754;2023-04-06T02:34:51;6.40;99.90
33715;DHT22;20043;50.998;4.754;2023-04-06T02:37:17;6.50;99.90
33715;DHT22;20043;50.998;4.754;2023-04-06T02:39:42;6.50;99.90
33715;DHT22;20043;50.998;4.754;2023-04-06T02:42:08;6.50;99.90
33715;DHT22;20043;50.998;4.754;2023-04-06T02:44:34;6.60;99.90
33715;DHT22;20043;50.998;4.754;2023-04-06T02:47:00;6.60;99.90
33715;DHT22;20043;50.998;4.754;2023-04-06T02:49:25;6.60;99.90
33715;DHT22;20043;50.998;4.754;2023-04-06T02:51:51;6.60;99.90
33715;DHT22;20043;50.998;4.754;2023-04-06T02:54:17;6.60;99.90
33715;DHT22;20043;50.998;4.754;2023-04-06T02:56:43;6.70;99.90
33715;DHT22;20043;50.998;4.754;2023-04-06T02:59:08;6.60;99.90
33715;DHT22;20043;50.998;4.754;2023-04-06T03:01:34;6.60;99.90
33715;DHT22;20043;50.998;4.754;2023-04-06T03:04:00;6.70;99.90
33715;DHT22;20043;50.998;4.754;2023-04-06T03:06:26;6.80;99.90
33715;DHT22;20043;50.998;4.754;2023-04-06T03:08:51;6.80;99.90
33715;DHT22;20043;50.998;4.754;2023-04-06T03:11:23;6.90;99.90
33715;DHT22;20043;50.998;4.754;2023-04-06T03:13:49;6.90;99.90
33715;DHT22;20043;50.998;4.754;2023-04-06T03:16:15;6.90;99.90
33715;DHT22;20043;50.998;4.754;2023-04-06T03:18:40;6.90;99.90
33715;DHT22;20043;50.998;4.754;2023-04-06T03:21:06;6.90;99.90
33715;DHT22;20043;50.998;4.754;2023-04-06T03:23:32;6.80;99.90
33715;DHT22;20043;50.998;4.754;2023-04-06T03:25:57;6.90;99.90
33715;DHT22;20043;50.998;4.754;2023-04-06T03:28:23;6.80;99.90
33715;DHT22;20043;50.998;4.754;2023-04-06T03:30:49;6.70;99.90
33715;DHT22;20043;50.998;4.754;2023-04-06T03:33:15;6.80;99.90
33715;DHT22;20043;50.998;4.754;2023-04-06T03:35:40;6.80;99.90
33715;DHT22;20043;50.998;4.754;2023-04-06T03:38:06;6.80;99.90
33715;DHT22;20043;50.998;4.754;2023-04-06T03:40:32;6.80;99.90
33715;DHT22;20043;50.998;4.754;2023-04-06T03:42:57;6.70;99.90
33715;DHT22;20043;50.998;4.754;2023-04-06T03:45:23;6.80;99.90
33715;DHT22;20043;50.998;4.754;2023-04-06T03:47:49;6.90;99.90
33715;DHT22;20043;50.998;4.754;2023-04-06T03:50:14;6.80;99.90
33715;DHT22;20043;50.998;4.754;2023-04-06T03:52:40;6.70;99.90
33715;DHT22;20043;50.998;4.754;2023-04-06T03:55:07;6.80;99.90
33715;DHT22;20043;50.998;4.754;2023-04-06T03:57:33;6.70;99.90
33715;DHT22;20043;50.998;4.754;2023-04-06T03:59:58;6.80;99.90
33715;DHT22;20043;50.998;4.754;2023-04-06T04:02:24;6.70;99.90
33715;DHT22;20043;50.998;4.754;2023-04-06T04:04:50;6.70;99.90
33715;DHT22;20043;50.998;4.754;2023-04-06T04:07:15;6.60;99.90
33715;DHT22;20043;50.998;4.754;2023-04-06T04:09:41;6.60;99.90
33715;DHT22;20043;50.998;4.754;2023-04-06T04:12:06;6.70;99.90
33715;DHT22;20043;50.998;4.754;2023-04-06T04:14:32;6.70;99.90
33715;DHT22;20043;50.998;4.754;2023-04-06T04:16:58;6.70;99.90
33715;DHT22;20043;50.998;4.754;2023-04-06T04:19:23;6.60;99.90
33715;DHT22;20043;50.998;4.754;2023-04-06T04:21:49;6.60;99.90
33715;DHT22;20043;50.998;4.754;2023-04-06T04:24:14;6.70;99.90
33715;DHT22;20043;50.998;4.754;2023-04-06T04:26:40;6.80;99.90
33715;DHT22;20043;50.998;4.754;2023-04-06T04:29:06;6.70;99.90
33715;DHT22;20043;50.998;4.754;2023-04-06T04:31:32;6.90;99.90
33715;DHT22;20043;50.998;4.754;2023-04-06T04:33:59;6.80;99.90
33715;DHT22;20043;50.998;4.754;2023-04-06T04:36:24;6.80;99.90
33715;DHT22;20043;50.998;4.754;2023-04-06T04:38:51;6.90;99.90
33715;DHT22;20043;50.998;4.754;2023-04-06T04:41:17;6.90;99.90
33715;DHT22;20043;50.998;4.754;2023-04-06T04:43:42;6.90;99.90
33715;DHT22;20043;50.998;4.754;2023-04-06T04:46:08;6.90;99.90
33715;DHT22;20043;50.998;4.754;2023-04-06T04:48:34;6.90;99.90
33715;DHT22;20043;50.998;4.754;2023-04-06T04:51:00;7.00;99.90
33715;DHT22;20043;50.998;4.754;2023-04-06T04:53:26;7.00;99.90
33715;DHT22;20043;50.998;4.754;2023-04-06T04:55:58;7.10;99.90
33715;DHT22;20043;50.998;4.754;2023-04-06T04:58:24;7.20;99.90
33715;DHT22;20043;50.998;4.754;2023-04-06T05:00:49;7.40;99.90
33715;DHT22;20043;50.998;4.754;2023-04-06T05:03:21;7.50;99.90
33715;DHT22;20043;50.998;4.754;2023-04-06T05:05:48;7.60;99.90
33715;DHT22;20043;50.998;4.754;2023-04-06T05:08:13;7.70;99.90
33715;DHT22;20043;50.998;4.754;2023-04-06T05:10:39;7.60;99.90
33715;DHT22;20043;50.998;4.754;2023-04-06T05:13:05;7.70;99.90
33715;DHT22;20043;50.998;4.754;2023-04-06T05:15:31;7.70;99.90
33715;DHT22;20043;50.998;4.754;2023-04-06T05:17:56;7.70;99.90
33715;DHT22;20043;50.998;4.754;2023-04-06T05:20:22;7.70;99.90
33715;DHT22;20043;50.998;4.754;2023-04-06T05:22:48;7.70;99.90
33715;DHT22;20043;50.998;4.754;2023-04-06T05:25:14;7.70;99.90
33715;DHT22;20043;50.998;4.754;2023-04-06T05:27:40;7.80;99.90
33715;DHT22;20043;50.998;4.754;2023-04-06T05:30:07;7.80;99.90
33715;DHT22;20043;50.998;4.754;2023-04-06T05:32:33;7.90;99.90
33715;DHT22;20043;50.998;4.754;2023-04-06T05:34:59;7.90;99.90
33715;DHT22;20043;50.998;4.754;2023-04-06T05:37:25;8.00;99.90
33715;DHT22;20043;50.998;4.754;2023-04-06T05:39:51;7.90;99.90
33715;DHT22;20043;50.998;4.754;2023-04-06T05:42:16;7.80;99.90
33715;DHT22;20043;50.998;4.754;2023-04-06T05:44:42;8.00;99.90
33715;DHT22;20043;50.998;4.754;2023-04-06T05:47:08;8.00;99.90
33715;DHT22;20043;50.998;4.754;2023-04-06T05:49:34;8.00;99.90
33715;DHT22;20043;50.998;4.754;2023-04-06T05:52:00;8.00;99.90
33715;DHT22;20043;50.998;4.754;2023-04-06T05:54:26;7.90;99.90
33715;DHT22;20043;50.998;4.754;2023-04-06T05:56:52;7.90;99.90
33715;DHT22;20043;50.998;4.754;2023-04-06T05:59:17;7.90;99.90
33715;DHT22;20043;50.998;4.754;2023-04-06T06:01:43;8.00;99.90
33715;DHT22;20043;50.998;4.754;2023-04-06T06:04:09;8.10;99.90
33715;DHT22;20043;50.998;4.754;2023-04-06T06:06:34;8.10;99.90
33715;DHT22;20043;50.998;4.754;2023-04-06T06:09:00;8.20;99.90
33715;DHT22;20043;50.998;4.754;2023-04-06T06:11:27;8.20;99.90
33715;DHT22;20043;50.998;4.754;2023-04-06T06:13:53;8.20;99.90
33715;DHT22;20043;50.998;4.754;2023-04-06T06:16:19;8.10;99.90
33715;DHT22;20043;50.998;4.754;2023-04-06T06:18:45;8.20;99.90
33715;DHT22;20043;50.998;4.754;2023-04-06T06:21:11;8.30;99.90
33715;DHT22;20043;50.998;4.754;2023-04-06T06:23:41;8.40;99.90
33715;DHT22;20043;50.998;4.754;2023-04-06T06:26:07;8.50;99.90
33715;DHT22;20043;50.998;4.754;2023-04-06T06:28:32;8.60;99.90
33715;DHT22;20043;50.998;4.754;2023-04-06T06:30:58;8.60;99.90
33715;DHT22;20043;50.998;4.754;2023-04-06T06:33:24;8.70;99.90
33715;DHT22;20043;50.998;4.754;2023-04-06T06:35:51;8.80;99.90
33715;DHT22;20043;50.998;4.754;2023-04-06T06:38:18;8.90;99.90
33715;DHT22;20043;50.998;4.754;2023-04-06T06:40:52;9.00;99.90
33715;DHT22;20043;50.998;4.754;2023-04-06T06:43:17;9.00;99.90
33715;DHT22;20043;50.998;4.754;2023-04-06T06:45:49;9.00;99.90
33715;DHT22;20043;50.998;4.754;2023-04-06T06:48:15;8.90;99.90
33715;DHT22;20043;50.998;4.754;2023-04-06T06:50:41;8.70;99.90
33715;DHT22;20043;50.998;4.754;2023-04-06T06:53:06;8.70;99.90
33715;DHT22;20043;50.998;4.754;2023-04-06T06:55:32;8.90;99.90
33715;DHT22;20043;50.998;4.754;2023-04-06T06:57:57;8.90;99.90
33715;DHT22;20043;50.998;4.754;2023-04-06T07:00:23;8.80;99.90
33715;DHT22;20043;50.998;4.754;2023-04-06T07:02:49;8.70;99.90
33715;DHT22;20043;50.998;4.754;2023-04-06T07:05:15;8.60;99.90
33715;DHT22;20043;50.998;4.754;2023-04-06T07:07:41;8.60;99.90
33715;DHT22;20043;50.998;4.754;2023-04-06T07:10:08;8.70;99.90
33715;DHT22;20043;50.998;4.754;2023-04-06T07:12:33;8.80;99.90
33715;DHT22;20043;50.998;4.754;2023-04-06T07:15:00;8.80;99.90
33715;DHT22;20043;50.998;4.754;2023-04-06T07:17:25;8.90;99.90
33715;DHT22;20043;50.998;4.754;2023-04-06T07:19:51;8.90;99.90
33715;DHT22;20043;50.998;4.754;2023-04-06T07:22:17;8.90;99.90
33715;DHT22;20043;50.998;4.754;2023-04-06T07:24:42;9.00;99.90
33715;DHT22;20043;50.998;4.754;2023-04-06T07:27:08;9.00;99.90
33715;DHT22;20043;50.998;4.754;2023-04-06T07:29:34;9.20;99.90
33715;DHT22;20043;50.998;4.754;2023-04-06T07:31:59;9.10;99.90
33715;DHT22;20043;50.998;4.754;2023-04-06T07:34:25;9.10;99.90
33715;DHT22;20043;50.998;4.754;2023-04-06T07:36:51;9.20;99.90
33715;DHT22;20043;50.998;4.754;2023-04-06T07:39:19;9.20;99.90
33715;DHT22;20043;50.998;4.754;2023-04-06T07:41:44;9.20;99.90
33715;DHT22;20043;50.998;4.754;2023-04-06T07:44:16;9.20;99.90
33715;DHT22;20043;50.998;4.754;2023-04-06T07:46:42;9.30;99.90
33715;DHT22;20043;50.998;4.754;2023-04-06T07:49:07;9.40;99.90
33715;DHT22;20043;50.998;4.754;2023-04-06T07:51:36;9.40;99.90
33715;DHT22;20043;50.998;4.754;2023-04-06T07:54:02;9.30;99.90
33715;DHT22;20043;50.998;4.754;2023-04-06T07:56:28;9.10;99.90
33715;DHT22;20043;50.998;4.754;2023-04-06T07:58:53;9.10;99.90
33715;DHT22;20043;50.998;4.754;2023-04-06T08:01:21;9.00;99.90
33715;DHT22;20043;50.998;4.754;2023-04-06T08:03:47;9.10;99.90
33715;DHT22;20043;50.998;4.754;2023-04-06T08:06:13;9.20;99.90
33715;DHT22;20043;50.998;4.754;2023-04-06T08:08:38;9.20;99.90
33715;DHT22;20043;50.998;4.754;2023-04-06T08:11:04;9.20;99.90
33715;DHT22;20043;50.998;4.754;2023-04-06T08:13:30;9.30;99.90
33715;DHT22;20043;50.998;4.754;2023-04-06T08:15:55;9.50;99.90
33715;DHT22;20043;50.998;4.754;2023-04-06T08:18:22;9.60;99.90
33715;DHT22;20043;50.998;4.754;2023-04-06T08:20:47;9.50;99.90
33715;DHT22;20043;50.998;4.754;2023-04-06T08:23:14;9.50;99.90
33715;DHT22;20043;50.998;4.754;2023-04-06T08:25:41;9.50;99.90
33715;DHT22;20043;50.998;4.754;2023-04-06T08:28:07;9.50;99.90
33715;DHT22;20043;50.998;4.754;2023-04-06T08:30:35;9.50;99.90
33715;DHT22;20043;50.998;4.754;2023-04-06T08:33:00;9.50;99.90
33715;DHT22;20043;50.998;4.754;2023-04-06T08:35:27;9.60;99.90
33715;DHT22;20043;50.998;4.754;2023-04-06T08:37:53;9.60;99.90
33715;DHT22;20043;50.998;4.754;2023-04-06T08:40:18;9.60;99.90
33715;DHT22;20043;50.998;4.754;2023-04-06T08:42:50;9.40;99.90
33715;DHT22;20043;50.998;4.754;2023-04-06T08:45:16;9.30;99.90
33715;DHT22;20043;50.998;4.754;2023-04-06T08:47:43;9.40;99.90
33715;DHT22;20043;50.998;4.754;2023-04-06T08:50:10;9.40;99.90
33715;DHT22;20043;50.998;4.754;2023-04-06T08:52:37;9.40;99.90
33715;DHT22;20043;50.998;4.754;2023-04-06T08:55:03;9.40;99.90
33715;DHT22;20043;50.998;4.754;2023-04-06T08:57:30;9.40;99.90
33715;DHT22;20043;50.998;4.754;2023-04-06T08:59:57;9.40;99.90
33715;DHT22;20043;50.998;4.754;2023-04-06T09:02:23;9.40;99.90
33715;DHT22;20043;50.998;4.754;2023-04-06T09:04:52;9.40;99.90
33715;DHT22;20043;50.998;4.754;2023-04-06T09:07:18;9.30;99.90
33715;DHT22;20043;50.998;4.754;2023-04-06T09:09:44;9.30;99.90
33715;DHT22;20043;50.998;4.754;2023-04-06T09:12:25;9.40;99.90
33715;DHT22;20043;50.998;4.754;2023-04-06T09:14:52;9.50;99.90
33715;DHT22;20043;50.998;4.754;2023-04-06T09:17:28;9.60;99.90
33715;DHT22;20043;50.998;4.754;2023-04-06T09:19:57;9.80;99.90
33715;DHT22;20043;50.998;4.754;2023-04-06T09:22:23;9.80;99.90
33715;DHT22;20043;50.998;4.754;2023-04-06T09:24:52;9.80;99.90
33715;DHT22;20043;50.998;4.754;2023-04-06T09:27:18;9.90;99.90
33715;DHT22;20043;50.998;4.754;2023-04-06T09:30:11;9.90;99.90
33715;DHT22;20043;50.998;4.754;2023-04-06T09:32:49;10.10;99.90
33715;DHT22;20043;50.998;4.754;2023-04-06T09:35:15;10.20;99.90
33715;DHT22;20043;50.998;4.754;2023-04-06T09:37:45;10.20;99.90
33715;DHT22;20043;50.998;4.754;2023-04-06T09:40:11;10.20;99.90
33715;DHT22;20043;50.998;4.754;2023-04-06T09:42:41;10.00;99.90
33715;DHT22;20043;50.998;4.754;2023-04-06T09:45:07;9.90;99.90
33715;DHT22;20043;50.998;4.754;2023-04-06T09:47:36;10.00;99.90
33715;DHT22;20043;50.998;4.754;2023-04-06T09:50:02;10.10;99.90
33715;DHT22;20043;50.998;4.754;2023-04-06T09:52:33;10.20;99.90
33715;DHT22;20043;50.998;4.754;2023-04-06T09:55:04;10.00;99.90
33715;DHT22;20043;50.998;4.754;2023-04-06T09:57:52;10.00;99.90
33715;DHT22;20043;50.998;4.754;2023-04-06T10:00:22;10.00;99.90
33715;DHT22;20043;50.998;4.754;2023-04-06T10:02:54;9.60;99.90
33715;DHT22;20043;50.998;4.754;2023-04-06T10:07:51;9.70;99.90
33715;DHT22;20043;50.998;4.754;2023-04-06T10:10:19;9.70;99.90
33715;DHT22;20043;50.998;4.754;2023-04-06T10:12:45;9.90;99.90
33715;DHT22;20043;50.998;4.754;2023-04-06T10:15:12;9.90;99.90
33715;DHT22;20043;50.998;4.754;2023-04-06T10:17:38;10.10;99.90
33715;DHT22;20043;50.998;4.754;2023-04-06T10:20:10;10.00;99.90
33715;DHT22;20043;50.998;4.754;2023-04-06T10:22:47;10.30;99.90
33715;DHT22;20043;50.998;4.754;2023-04-06T10:25:26;10.30;99.90
33715;DHT22;20043;50.998;4.754;2023-04-06T10:28:05;10.40;99.90
33715;DHT22;20043;50.998;4.754;2023-04-06T10:30:31;10.40;99.90
33715;DHT22;20043;50.998;4.754;2023-04-06T10:32:57;10.30;99.90
33715;DHT22;20043;50.998;4.754;2023-04-06T10:35:23;10.20;99.90
33715;DHT22;20043;50.998;4.754;2023-04-06T10:40:24;10.40;99.90
33715;DHT22;20043;50.998;4.754;2023-04-06T10:42:52;10.50;99.90
33715;DHT22;20043;50.998;4.754;2023-04-06T10:45:26;10.50;99.90
33715;DHT22;20043;50.998;4.754;2023-04-06T10:47:55;10.40;99.90
33715;DHT22;20043;50.998;4.754;2023-04-06T10:50:22;10.30;99.90
33715;DHT22;20043;50.998;4.754;2023-04-06T10:52:59;10.30;99.90
33715;DHT22;20043;50.998;4.754;2023-04-06T10:55:26;10.10;99.90
33715;DHT22;20043;50.998;4.754;2023-04-06T10:57:53;10.10;99.90
33715;DHT22;20043;50.998;4.754;2023-04-06T11:00:19;10.20;99.90
33715;DHT22;20043;50.998;4.754;2023-04-06T11:02:45;9.90;99.90
33715;DHT22;20043;50.998;4.754;2023-04-06T11:05:12;9.80;99.90
33715;DHT22;20043;50.998;4.754;2023-04-06T11:07:39;9.50;99.90
33715;DHT22;20043;50.998;4.754;2023-04-06T11:10:06;9.60;99.90
33715;DHT22;20043;50.998;4.754;2023-04-06T11:12:32;9.60;99.90
33715;DHT22;20043;50.998;4.754;2023-04-06T11:15:00;9.80;99.90
33715;DHT22;20043;50.998;4.754;2023-04-06T11:17:38;9.90;99.90
33715;DHT22;20043;50.998;4.754;2023-04-06T11:20:10;9.90;99.90
33715;DHT22;20043;50.998;4.754;2023-04-06T11:22:36;9.70;99.90
33715;DHT22;20043;50.998;4.754;2023-04-06T11:25:08;9.70;99.90
33715;DHT22;20043;50.998;4.754;2023-04-06T11:27:34;9.70;99.90
33715;DHT22;20043;50.998;4.754;2023-04-06T11:30:01;9.60;99.90
33715;DHT22;20043;50.998;4.754;2023-04-06T11:32:26;9.60;99.90
33715;DHT22;20043;50.998;4.754;2023-04-06T11:34:52;9.60;99.90
33715;DHT22;20043;50.998;4.754;2023-04-06T11:37:18;9.50;99.90
33715;DHT22;20043;50.998;4.754;2023-04-06T11:39:51;9.50;99.90
33715;DHT22;20043;50.998;4.754;2023-04-06T11:42:28;9.50;99.90
33715;DHT22;20043;50.998;4.754;2023-04-06T11:44:56;9.50;99.90
33715;DHT22;20043;50.998;4.754;2023-04-06T11:47:35;9.60;99.90
33715;DHT22;20043;50.998;4.754;2023-04-06T11:50:10;9.60;99.90
33715;DHT22;20043;50.998;4.754;2023-04-06T11:52:36;9.80;99.90
33715;DHT22;20043;50.998;4.754;2023-04-06T11:55:15;10.00;99.90
33715;DHT22;20043;50.998;4.754;2023-04-06T11:57:42;10.10;99.90
33715;DHT22;20043;50.998;4.754;2023-04-06T12:00:09;10.20;99.90
33715;DHT22;20043;50.998;4.754;2023-04-06T12:02:36;10.10;99.90
33715;DHT22;20043;50.998;4.754;2023-04-06T12:05:02;10.10;99.90
33715;DHT22;20043;50.998;4.754;2023-04-06T12:07:29;10.20;99.90
33715;DHT22;20043;50.998;4.754;2023-04-06T12:09:55;10.30;99.90
33715;DHT22;20043;50.998;4.754;2023-04-06T12:12:20;10.10;99.90
33715;DHT22;20043;50.998;4.754;2023-04-06T12:14:46;10.10;99.90
33715;DHT22;20043;50.998;4.754;2023-04-06T12:17:12;10.00;99.90
33715;DHT22;20043;50.998;4.754;2023-04-06T12:19:37;10.00;99.90
33715;DHT22;20043;50.998;4.754;2023-04-06T12:22:03;9.90;99.90
33715;DHT22;20043;50.998;4.754;2023-04-06T12:24:29;10.10;99.90
33715;DHT22;20043;50.998;4.754;2023-04-06T12:26:55;10.10;99.90
33715;DHT22;20043;50.998;4.754;2023-04-06T12:29:24;10.00;99.90
33715;DHT22;20043;50.998;4.754;2023-04-06T12:31:50;10.20;99.90
33715;DHT22;20043;50.998;4.754;2023-04-06T12:34:16;10.20;99.90
33715;DHT22;20043;50.998;4.754;2023-04-06T12:36:42;10.20;99.90
33715;DHT22;20043;50.998;4.754;2023-04-06T12:39:07;10.20;99.90
33715;DHT22;20043;50.998;4.754;2023-04-06T12:41:33;10.30;99.90
33715;DHT22;20043;50.998;4.754;2023-04-06T12:43:59;10.30;99.90
33715;DHT22;20043;50.998;4.754;2023-04-06T12:46:25;10.30;99.90
33715;DHT22;20043;50.998;4.754;2023-04-06T12:48:51;10.10;99.90
33715;DHT22;20043;50.998;4.754;2023-04-06T12:51:21;10.10;99.90
33715;DHT22;20043;50.998;4.754;2023-04-06T12:53:47;10.10;99.90
33715;DHT22;20043;50.998;4.754;2023-04-06T12:56:14;10.10;99.90
33715;DHT22;20043;50.998;4.754;2023-04-06T12:58:41;10.00;99.90
33715;DHT22;20043;50.998;4.754;2023-04-06T13:01:07;10.00;99.90
33715;DHT22;20043;50.998;4.754;2023-04-06T13:03:33;10.10;99.90
33715;DHT22;20043;50.998;4.754;2023-04-06T13:06:00;10.30;99.90
33715;DHT22;20043;50.998;4.754;2023-04-06T13:08:26;10.30;99.90
33715;DHT22;20043;50.998;4.754;2023-04-06T13:10:53;10.30;99.90
33715;DHT22;20043;50.998;4.754;2023-04-06T13:13:28;10.40;99.90
33715;DHT22;20043;50.998;4.754;2023-04-06T13:16:08;10.30;99.90
33715;DHT22;20043;50.998;4.754;2023-04-06T13:18:34;10.30;99.90
33715;DHT22;20043;50.998;4.754;2023-04-06T13:21:00;10.30;99.90
33715;DHT22;20043;50.998;4.754;2023-04-06T13:23:26;10.40;99.90
33715;DHT22;20043;50.998;4.754;2023-04-06T13:26:02;10.40;99.90
33715;DHT22;20043;50.998;4.754;2023-04-06T13:28:29;10.20;99.90
33715;DHT22;20043;50.998;4.754;2023-04-06T13:31:07;10.30;99.90
33715;DHT22;20043;50.998;4.754;2023-04-06T13:33:34;10.30;99.90
33715;DHT22;20043;50.998;4.754;2023-04-06T13:36:00;10.30;99.90
33715;DHT22;20043;50.998;4.754;2023-04-06T13:38:25;10.30;99.90
33715;DHT22;20043;50.998;4.754;2023-04-06T13:40:51;10.10;99.90
33715;DHT22;20043;50.998;4.754;2023-04-06T13:43:17;10.00;99.90
33715;DHT22;20043;50.998;4.754;2023-04-06T13:45:52;10.00;99.90
33715;DHT22;20043;50.998;4.754;2023-04-06T13:48:20;10.20;99.90
33715;DHT22;20043;50.998;4.754;2023-04-06T13:50:46;10.20;99.90
33715;DHT22;20043;50.998;4.754;2023-04-06T13:53:12;10.20;99.90
33715;DHT22;20043;50.998;4.754;2023-04-06T13:55:37;10.20;99.90
33715;DHT22;20043;50.998;4.754;2023-04-06T13:58:03;10.20;99.90
33715;DHT22;20043;50.998;4.754;2023-04-06T14:00:28;10.20;99.90
33715;DHT22;20043;50.998;4.754;2023-04-06T14:02:54;10.10;99.90
33715;DHT22;20043;50.998;4.754;2023-04-06T14:05:23;10.00;99.90
33715;DHT22;20043;50.998;4.754;2023-04-06T14:07:49;10.00;99.90
33715;DHT22;20043;50.998;4.754;2023-04-06T14:10:15;10.10;99.90
33715;DHT22;20043;50.998;4.754;2023-04-06T14:12:42;10.10;99.90
33715;DHT22;20043;50.998;4.754;2023-04-06T14:15:09;10.10;99.90
33715;DHT22;20043;50.998;4.754;2023-04-06T14:17:34;10.20;99.90
33715;DHT22;20043;50.998;4.754;2023-04-06T14:20:00;10.30;99.90
33715;DHT22;20043;50.998;4.754;2023-04-06T14:22:26;10.30;99.90
33715;DHT22;20043;50.998;4.754;2023-04-06T14:24:51;10.30;99.90
33715;DHT22;20043;50.998;4.754;2023-04-06T14:27:17;10.20;99.90
33715;DHT22;20043;50.998;4.754;2023-04-06T14:29:42;10.20;99.90
33715;DHT22;20043;50.998;4.754;2023-04-06T14:32:08;10.20;99.90
33715;DHT22;20043;50.998;4.754;2023-04-06T14:34:37;10.20;99.90
33715;DHT22;20043;50.998;4.754;2023-04-06T14:37:02;10.20;99.90
33715;DHT22;20043;50.998;4.754;2023-04-06T14:39:28;10.20;99.90
33715;DHT22;20043;50.998;4.754;2023-04-06T14:41:53;10.30;99.90
33715;DHT22;20043;50.998;4.754;2023-04-06T14:44:21;10.30;99.90
33715;DHT22;20043;50.998;4.754;2023-04-06T14:46:46;10.30;99.90
33715;DHT22;20043;50.998;4.754;2023-04-06T14:49:12;10.30;99.90
33715;DHT22;20043;50.998;4.754;2023-04-06T14:51:38;10.40;99.90
33715;DHT22;20043;50.998;4.754;2023-04-06T14:54:04;10.20;99.90
33715;DHT22;20043;50.998;4.754;2023-04-06T14:56:30;10.30;99.90
33715;DHT22;20043;50.998;4.754;2023-04-06T14:58:58;10.20;99.90
33715;DHT22;20043;50.998;4.754;2023-04-06T15:01:23;10.20;99.90
33715;DHT22;20043;50.998;4.754;2023-04-06T15:03:49;10.30;99.90
33715;DHT22;20043;50.998;4.754;2023-04-06T15:06:18;10.50;99.90
33715;DHT22;20043;50.998;4.754;2023-04-06T15:08:45;10.50;99.90
33715;DHT22;20043;50.998;4.754;2023-04-06T15:11:12;10.60;99.90
33715;DHT22;20043;50.998;4.754;2023-04-06T15:13:38;10.60;99.90
33715;DHT22;20043;50.998;4.754;2023-04-06T15:16:05;10.50;99.90
33715;DHT22;20043;50.998;4.754;2023-04-06T15:18:33;10.40;99.90
33715;DHT22;20043;50.998;4.754;2023-04-06T15:20:59;10.40;99.90
33715;DHT22;20043;50.998;4.754;2023-04-06T15:23:24;10.30;99.90
33715;DHT22;20043;50.998;4.754;2023-04-06T15:25:50;10.20;99.90
33715;DHT22;20043;50.998;4.754;2023-04-06T15:28:16;10.40;99.90
33715;DHT22;20043;50.998;4.754;2023-04-06T15:30:42;10.50;99.90
33715;DHT22;20043;50.998;4.754;2023-04-06T15:33:08;10.60;99.90
33715;DHT22;20043;50.998;4.754;2023-04-06T15:35:34;10.60;99.90
33715;DHT22;20043;50.998;4.754;2023-04-06T15:38:04;10.60;99.90
33715;DHT22;20043;50.998;4.754;2023-04-06T15:40:30;10.70;99.90
33715;DHT22;20043;50.998;4.754;2023-04-06T15:42:56;10.80;99.90
33715;DHT22;20043;50.998;4.754;2023-04-06T15:45:22;10.80;99.90